createdAt,value
2019-03-17T00:01:39.923Z,13.90
2019-03-17T00:04:07.502Z,13.80
2019-03-17T00:06:35.087Z,13.80
2019-03-17T00:09:02.655Z,14.20
2019-03-17T00:11:30.257Z,14.20
2019-03-17T00:13:57.836Z,14.70
2019-03-17T00:16:25.434Z,15.20
2019-03-17T00:18:53.013Z,14.90
2019-03-17T00:21:20.564Z,14.70
2019-03-17T00:23:48.198Z,14.50
2019-03-17T00:26:15.773Z,14.90
2019-03-17T00:28:44.380Z,14.80
2019-03-17T00:31:23.359Z,14.90
2019-03-17T00:33:39.361Z,14.90
2019-03-17T00:36:07.263Z,15.20
2019-03-17T00:38:35.943Z,15.40
2019-03-17T00:41:03.523Z,15.40
2019-03-17T00:43:31.867Z,15.70
2019-03-17T00:45:59.463Z,15.70
2019-03-17T00:48:27.007Z,15.60
2019-03-17T00:50:55.343Z,15.70
2019-03-17T00:53:22.895Z,15.70
2019-03-17T00:55:50.471Z,15.70
2019-03-17T00:58:18.061Z,15.80
2019-03-17T01:00:46.438Z,16.10
2019-03-17T01:03:14.778Z,16.20
2019-03-17T01:05:43.008Z,16.20
2019-03-17T01:08:10.603Z,16.10
2019-03-17T01:10:38.159Z,16.20
2019-03-17T01:13:05.742Z,16.50
2019-03-17T01:15:33.316Z,16.30
2019-03-17T01:18:01.683Z,16.40
2019-03-17T01:20:29.290Z,16.40
2019-03-17T01:22:56.867Z,16.20
2019-03-17T01:25:24.440Z,16.20
2019-03-17T01:27:52.031Z,16.00
2019-03-17T01:30:20.470Z,16.00
2019-03-17T01:32:48.056Z,16.20
2019-03-17T01:35:15.739Z,16.20
2019-03-17T01:37:44.090Z,16.20
2019-03-17T01:40:12.521Z,16.20
2019-03-17T01:42:40.088Z,16.40
2019-03-17T01:47:51.466Z,16.20
2019-03-17T01:50:19.797Z,16.10
2019-03-17T01:52:47.458Z,16.10
2019-03-17T01:55:15.880Z,16.00
2019-03-17T01:57:44.303Z,16.00
2019-03-17T02:00:12.791Z,16.00
2019-03-17T02:02:40.351Z,16.00
2019-03-17T02:05:07.968Z,15.80
2019-03-17T02:07:36.395Z,15.50
2019-03-17T02:10:03.978Z,15.40
2019-03-17T02:12:31.543Z,15.70
2019-03-17T02:14:59.903Z,15.50
2019-03-17T02:17:27.531Z,15.50
2019-03-17T02:19:55.733Z,15.60
2019-03-17T02:22:23.314Z,15.50
2019-03-17T02:24:50.965Z,15.40
2019-03-17T02:27:18.511Z,15.30
2019-03-17T02:29:46.529Z,15.30
2019-03-17T02:55:25.804Z,15.00
2019-03-17T02:57:54.167Z,15.10
2019-03-17T03:00:21.756Z,15.00
2019-03-17T03:02:49.315Z,15.10
2019-03-17T03:05:16.913Z,15.10
2019-03-17T03:07:44.483Z,14.90
2019-03-17T03:10:12.999Z,14.80
2019-03-17T03:12:40.560Z,14.80
2019-03-17T03:15:08.910Z,14.70
2019-03-17T03:17:36.566Z,14.70
2019-03-17T03:20:05.054Z,14.60
2019-03-17T03:22:32.661Z,14.60
2019-03-17T03:25:00.577Z,14.50
2019-03-17T03:27:27.880Z,14.50
2019-03-17T03:29:55.467Z,14.60
2019-03-17T03:32:24.064Z,14.70
2019-03-17T03:34:51.678Z,14.60
2019-03-17T03:37:19.268Z,14.50
2019-03-17T03:39:46.869Z,14.50
2019-03-17T03:42:15.209Z,14.80
2019-03-17T03:44:42.786Z,14.80
2019-03-17T03:47:10.389Z,14.70
2019-03-17T03:49:37.988Z,14.60
2019-03-17T03:52:05.524Z,14.60
2019-03-17T03:54:33.132Z,14.60
2019-03-17T03:57:00.703Z,14.60
2019-03-17T03:59:29.064Z,14.70
2019-03-17T04:01:56.700Z,14.70
2019-03-17T04:04:24.354Z,14.60
2019-03-17T04:06:52.265Z,14.50
2019-03-17T04:09:20.610Z,14.50
2019-03-17T04:11:48.152Z,14.50
2019-03-17T04:14:15.717Z,14.40
2019-03-17T04:16:43.306Z,14.40
2019-03-17T04:19:10.894Z,14.40
2019-03-17T04:21:39.269Z,14.40
2019-03-17T04:24:06.866Z,14.40
2019-03-17T04:26:34.433Z,14.40
2019-03-17T04:29:02.026Z,14.40
2019-03-17T04:31:29.611Z,14.30
2019-03-17T04:33:57.981Z,14.30
2019-03-17T04:36:39.129Z,14.30
2019-03-17T04:38:53.245Z,14.20
2019-03-17T04:41:21.074Z,14.00
2019-03-17T04:43:49.518Z,14.10
2019-03-17T04:46:17.091Z,14.10
2019-03-17T04:48:44.676Z,14.00
2019-03-17T04:51:12.287Z,14.10
2019-03-17T04:53:39.833Z,14.10
2019-03-17T04:56:07.401Z,14.00
2019-03-17T04:58:34.963Z,14.00
2019-03-17T05:01:02.550Z,13.90
2019-03-17T05:03:30.939Z,14.00
2019-03-17T05:05:59.370Z,13.90
2019-03-17T05:08:26.943Z,13.90
2019-03-17T05:10:54.747Z,14.00
2019-03-17T05:13:22.584Z,13.80
2019-03-17T05:15:50.206Z,13.90
2019-03-17T05:18:17.882Z,13.90
2019-03-17T05:20:45.468Z,14.00
2019-03-17T05:23:13.039Z,13.90
2019-03-17T05:25:41.419Z,14.00
2019-03-17T05:28:09.771Z,14.00
2019-03-17T05:30:37.354Z,14.00
2019-03-17T05:33:05.730Z,14.00
2019-03-17T05:35:33.333Z,14.00
2019-03-17T05:38:00.940Z,14.10
2019-03-17T05:40:28.555Z,14.20
2019-03-17T05:42:56.150Z,14.10
2019-03-17T05:45:25.485Z,14.10
2019-03-17T05:47:54.202Z,14.00
2019-03-17T05:50:21.861Z,14.00
2019-03-17T05:52:49.465Z,14.20
2019-03-17T05:55:17.050Z,14.20
2019-03-17T05:57:45.058Z,14.20
2019-03-17T06:00:13.602Z,14.10
2019-03-17T06:02:42.006Z,14.30
2019-03-17T06:05:09.632Z,14.30
2019-03-17T06:07:38.014Z,14.20
2019-03-17T06:10:18.246Z,14.20
2019-03-17T06:12:46.073Z,14.30
2019-03-17T06:15:13.703Z,14.30
2019-03-17T06:17:41.526Z,14.30
2019-03-17T06:20:09.173Z,14.20
2019-03-17T06:22:36.821Z,14.20
2019-03-17T06:25:04.473Z,14.10
2019-03-17T06:27:32.264Z,14.40
2019-03-17T06:30:00.752Z,14.40
2019-03-17T06:32:28.524Z,14.50
2019-03-17T06:34:56.193Z,14.50
2019-03-17T06:37:31.113Z,14.50
2019-03-17T06:39:55.937Z,14.60
2019-03-17T06:42:24.421Z,14.60
2019-03-17T06:44:52.737Z,14.70
2019-03-17T06:47:20.590Z,14.70
2019-03-17T06:49:50.742Z,14.70
2019-03-17T06:52:18.614Z,14.70
2019-03-17T06:54:46.520Z,14.70
2019-03-17T06:57:14.375Z,14.60
2019-03-17T07:02:13.985Z,14.50
2019-03-17T07:04:42.438Z,14.70
2019-03-17T07:07:10.317Z,14.60
2019-03-17T07:09:37.879Z,14.70
2019-03-17T07:12:05.547Z,14.70
2019-03-17T07:17:05.780Z,14.80
2019-03-17T07:19:33.723Z,14.80
2019-03-17T07:22:02.227Z,14.70
2019-03-17T07:24:30.278Z,14.80
2019-03-17T07:26:58.107Z,14.70
2019-03-17T07:29:26.796Z,14.70
2019-03-17T07:31:55.230Z,14.60
2019-03-17T07:34:23.272Z,14.60
2019-03-17T07:36:51.291Z,14.50
2019-03-17T07:39:19.718Z,14.50
2019-03-17T07:41:47.254Z,14.50
2019-03-17T07:44:14.839Z,14.60
2019-03-17T07:46:43.254Z,14.50
2019-03-17T07:51:43.055Z,14.70
2019-03-17T07:54:11.654Z,14.70
2019-03-17T07:56:39.448Z,14.70
2019-03-17T07:59:07.044Z,14.60
2019-03-17T08:01:34.630Z,14.50
2019-03-17T08:04:02.215Z,14.50
2019-03-17T08:06:29.775Z,14.60
2019-03-17T08:08:58.367Z,14.60
2019-03-17T08:11:26.604Z,14.60
2019-03-17T08:13:54.203Z,14.80
2019-03-17T08:16:21.795Z,14.70
2019-03-17T08:18:49.362Z,14.70
2019-03-17T08:21:17.044Z,14.80
2019-03-17T08:23:44.663Z,14.60
2019-03-17T08:26:13.563Z,14.60
2019-03-17T08:28:41.208Z,14.70
2019-03-17T08:31:09.596Z,14.70
2019-03-17T08:33:37.210Z,14.90
2019-03-17T08:36:06.488Z,14.60
2019-03-17T08:38:34.383Z,14.70
2019-03-17T08:41:04.567Z,15.00
2019-03-17T08:43:32.271Z,15.00
2019-03-17T08:45:59.937Z,15.20
2019-03-17T08:48:28.282Z,14.70
2019-03-17T08:50:56.776Z,14.70
2019-03-17T09:24:17.009Z,14.50
2019-03-17T09:31:42.225Z,14.80
2019-03-17T09:39:13.751Z,14.90
2019-03-17T09:44:14.004Z,15.30
2019-03-17T09:46:41.587Z,15.20
2019-03-17T09:49:09.247Z,15.20
2019-03-17T09:51:37.535Z,15.20
2019-03-17T09:54:05.892Z,15.70
2019-03-17T09:56:33.483Z,15.70
2019-03-17T09:59:01.919Z,15.70
2019-03-17T10:01:29.443Z,15.70
2019-03-17T10:03:58.424Z,15.80
2019-03-17T10:06:26.036Z,15.80
2019-03-17T10:09:00.023Z,15.70
2019-03-17T10:11:21.237Z,15.80
2019-03-17T10:13:49.305Z,15.60
2019-03-17T10:16:17.848Z,15.90
2019-03-17T10:18:46.196Z,16.00
2019-03-17T10:21:14.943Z,16.10
2019-03-17T10:23:43.494Z,16.10
2019-03-17T10:33:54.145Z,16.40
2019-03-17T10:36:21.805Z,16.70
2019-03-17T10:38:50.284Z,16.90
2019-03-17T10:41:18.204Z,16.80
2019-03-17T10:43:47.584Z,16.50
2019-03-17T10:46:17.777Z,16.50
2019-03-17T10:48:45.362Z,16.50
2019-03-17T10:51:14.722Z,16.60
2019-03-17T10:53:42.471Z,16.80
2019-03-17T10:56:10.576Z,16.80
2019-03-17T10:58:38.156Z,17.00
2019-03-17T11:01:05.819Z,16.80
2019-03-17T11:03:33.452Z,16.80
2019-03-17T11:06:02.040Z,17.10
2019-03-17T11:08:31.065Z,17.10
2019-03-17T11:10:58.879Z,17.10
2019-03-17T11:13:26.626Z,17.50
2019-03-17T11:15:55.094Z,16.90
2019-03-17T11:18:25.971Z,17.20
2019-03-17T11:26:00.611Z,17.40
2019-03-17T11:28:28.216Z,17.50
2019-03-17T11:30:55.767Z,17.60
2019-03-17T11:33:23.328Z,17.50
2019-03-17T11:35:50.864Z,17.60
2019-03-17T11:38:18.402Z,17.60
2019-03-17T11:40:45.960Z,17.30
2019-03-17T11:43:13.490Z,17.40
2019-03-17T11:45:41.055Z,17.80
2019-03-17T11:48:09.359Z,17.40
2019-03-17T11:50:36.923Z,17.40
2019-03-17T11:53:04.459Z,17.30
2019-03-17T11:55:32.057Z,17.30
2019-03-17T11:57:59.598Z,17.00
2019-03-17T12:00:27.156Z,16.80
2019-03-17T12:02:54.691Z,16.70
2019-03-17T12:05:23.000Z,16.60
2019-03-17T12:07:50.560Z,16.60
2019-03-17T12:10:19.104Z,16.70
2019-03-17T12:12:46.663Z,16.40
2019-03-17T12:15:18.895Z,15.70
2019-03-17T12:17:46.457Z,15.60
2019-03-17T12:20:13.987Z,15.60
2019-03-17T12:22:41.544Z,15.70
2019-03-17T12:25:11.481Z,15.50
2019-03-17T12:27:38.392Z,15.10
2019-03-17T12:30:20.832Z,15.10
2019-03-17T12:32:48.383Z,14.90
2019-03-17T12:35:15.950Z,14.60
2019-03-17T12:37:43.487Z,14.30
2019-03-17T12:40:11.051Z,14.20
2019-03-17T12:42:38.614Z,14.30
2019-03-17T12:45:06.176Z,14.40
2019-03-17T12:47:33.714Z,14.80
2019-03-17T12:50:01.244Z,14.70
2019-03-17T12:52:28.811Z,14.70
2019-03-17T12:54:56.349Z,14.70
2019-03-17T12:57:23.911Z,14.30
2019-03-17T12:59:51.480Z,14.10
2019-03-17T13:02:19.015Z,13.90
2019-03-17T13:04:46.575Z,13.60
2019-03-17T13:07:14.114Z,13.40
2019-03-17T13:09:42.407Z,13.20
2019-03-17T13:12:09.973Z,13.20
2019-03-17T13:14:37.511Z,13.10
2019-03-17T13:17:05.069Z,13.00
2019-03-17T13:19:33.477Z,12.90
2019-03-17T13:22:01.025Z,12.90
2019-03-17T13:24:28.588Z,12.90
2019-03-17T13:26:56.156Z,12.80
2019-03-17T13:29:23.727Z,12.80
2019-03-17T13:31:51.264Z,12.70
2019-03-17T13:34:18.831Z,12.60
2019-03-17T13:36:46.750Z,12.50
2019-03-17T13:39:14.084Z,12.50
2019-03-17T13:41:41.639Z,12.40
2019-03-17T13:44:09.212Z,12.30
2019-03-17T13:46:37.533Z,12.20
2019-03-17T13:49:05.063Z,12.20
2019-03-17T13:51:32.756Z,12.00
2019-03-17T13:54:00.293Z,11.90
2019-03-17T13:56:27.852Z,11.70
2019-03-17T13:58:55.386Z,11.70
2019-03-17T14:01:22.958Z,11.50
2019-03-17T14:03:50.500Z,11.40
2019-03-17T14:06:18.059Z,11.40
2019-03-17T14:08:45.591Z,11.40
2019-03-17T14:11:13.149Z,11.20
2019-03-17T14:13:40.712Z,10.20
2019-03-17T14:16:08.243Z,9.70
2019-03-17T14:18:35.771Z,9.00
2019-03-17T14:21:03.330Z,8.50
2019-03-17T14:23:30.864Z,7.80
2019-03-17T14:25:58.394Z,7.00
2019-03-17T14:28:25.947Z,6.60
2019-03-17T14:30:53.507Z,6.40
2019-03-17T14:33:21.065Z,6.30
2019-03-17T14:35:48.599Z,6.10
2019-03-17T14:38:16.159Z,6.10
2019-03-17T14:40:52.798Z,6.00
2019-03-17T14:43:11.292Z,6.40
2019-03-17T14:45:38.851Z,6.60
2019-03-17T14:48:06.457Z,6.70
2019-03-17T14:50:33.987Z,6.80
2019-03-17T14:53:01.550Z,6.80
2019-03-17T14:55:29.164Z,6.80
2019-03-17T14:57:56.692Z,6.60
2019-03-17T15:00:24.260Z,6.30
2019-03-17T15:02:51.806Z,6.40
2019-03-17T15:05:19.384Z,6.40
2019-03-17T15:07:47.124Z,6.40
2019-03-17T15:10:16.944Z,5.80
2019-03-17T15:12:44.499Z,5.80
2019-03-17T15:15:12.356Z,5.70
2019-03-17T15:17:39.883Z,5.40
2019-03-17T15:20:08.182Z,5.00
2019-03-17T15:22:35.743Z,5.00
2019-03-17T15:25:03.282Z,5.00
2019-03-17T15:27:30.851Z,4.90
2019-03-17T15:29:58.416Z,4.90
2019-03-17T15:32:25.944Z,4.80
2019-03-17T15:34:53.490Z,4.70
2019-03-17T15:37:21.027Z,4.70
2019-03-17T15:39:48.593Z,4.70
2019-03-17T15:42:16.131Z,4.70
2019-03-17T15:44:43.691Z,4.70
2019-03-17T15:47:11.247Z,4.80
2019-03-17T15:49:38.808Z,4.80
2019-03-17T15:52:06.354Z,4.80
2019-03-17T15:54:33.919Z,4.80
2019-03-17T15:57:01.458Z,4.90
2019-03-17T15:59:28.990Z,4.90
2019-03-17T16:01:56.543Z,4.90
2019-03-17T16:04:24.195Z,4.90
2019-03-17T16:06:51.759Z,4.90
2019-03-17T16:09:19.331Z,5.00
2019-03-17T16:11:46.967Z,5.00
2019-03-17T16:14:14.455Z,5.00
2019-03-17T16:16:42.015Z,5.00
2019-03-17T16:19:09.547Z,5.10
2019-03-17T16:21:37.111Z,5.10
2019-03-17T16:24:04.635Z,5.10
2019-03-17T16:26:32.177Z,5.10
2019-03-17T16:28:59.733Z,5.10
2019-03-17T16:31:27.302Z,5.10
2019-03-17T16:33:55.843Z,5.10
2019-03-17T16:36:23.375Z,5.10
2019-03-17T16:38:50.933Z,5.10
2019-03-17T16:41:18.505Z,5.10
2019-03-17T16:43:46.037Z,5.10
2019-03-17T16:46:13.788Z,5.10
2019-03-17T16:48:42.246Z,5.10
2019-03-17T16:51:09.766Z,5.10
2019-03-17T16:53:37.319Z,5.10
2019-03-17T16:56:04.856Z,5.10
2019-03-17T16:58:32.412Z,5.10
2019-03-17T17:01:00.021Z,5.20
2019-03-17T17:03:27.560Z,5.20
2019-03-17T17:05:55.133Z,5.20
2019-03-17T17:08:22.668Z,5.20
2019-03-17T17:10:50.849Z,5.20
2019-03-17T17:13:17.802Z,5.20
2019-03-17T17:15:45.360Z,5.30
2019-03-17T17:18:12.890Z,5.30
2019-03-17T17:20:40.452Z,5.30
2019-03-17T17:23:07.983Z,5.30
2019-03-17T17:25:35.548Z,5.30
2019-03-17T17:28:03.081Z,5.30
2019-03-17T17:30:30.643Z,5.30
2019-03-17T17:32:58.329Z,5.30
2019-03-17T17:35:26.879Z,5.30
2019-03-17T17:37:55.175Z,5.40
2019-03-17T17:40:22.730Z,5.30
2019-03-17T17:42:50.263Z,5.40
2019-03-17T17:45:18.715Z,5.30
2019-03-17T17:47:47.025Z,5.30
2019-03-17T17:50:15.331Z,5.20
2019-03-17T17:52:42.865Z,5.30
2019-03-17T17:55:10.399Z,5.20
2019-03-17T17:57:37.951Z,5.30
2019-03-17T18:00:06.389Z,5.20
2019-03-17T18:02:33.948Z,5.20
2019-03-17T18:05:01.476Z,5.20
2019-03-17T18:07:29.966Z,5.20
2019-03-17T18:09:57.495Z,5.30
2019-03-17T18:12:25.054Z,5.30
2019-03-17T18:14:52.615Z,5.30
2019-03-17T18:17:20.907Z,5.40
2019-03-17T18:19:48.468Z,5.40
2019-03-17T18:22:17.119Z,5.50
2019-03-17T18:24:45.467Z,5.50
2019-03-17T18:27:13.015Z,5.50
2019-03-17T18:29:40.576Z,5.50
2019-03-17T18:32:09.122Z,5.60
2019-03-17T18:34:36.679Z,5.60
2019-03-17T18:37:04.217Z,5.60
2019-03-17T18:39:31.803Z,5.70
2019-03-17T18:41:59.343Z,5.70
2019-03-17T18:44:26.894Z,5.70
2019-03-17T18:46:54.457Z,5.70
2019-03-17T18:49:23.001Z,5.60
2019-03-17T18:51:50.913Z,5.60
2019-03-17T18:54:18.911Z,5.70
2019-03-17T18:56:46.479Z,5.80
2019-03-17T18:59:14.036Z,5.80
2019-03-17T19:01:42.339Z,6.00
2019-03-17T19:04:09.894Z,6.00
2019-03-17T19:06:37.475Z,6.10
2019-03-17T19:09:05.045Z,6.10
2019-03-17T19:11:32.612Z,6.20
2019-03-17T19:14:00.167Z,6.30
2019-03-17T19:16:27.729Z,6.20
2019-03-17T19:18:55.261Z,6.10
2019-03-17T19:21:22.856Z,6.00
2019-03-17T19:23:50.407Z,5.90
2019-03-17T19:26:17.943Z,5.80
2019-03-17T20:37:58.511Z,5.20
2019-03-17T20:40:26.071Z,5.20
2019-03-17T20:42:53.600Z,5.10
2019-03-17T20:45:21.200Z,4.90
2019-03-17T20:47:48.719Z,4.80
2019-03-17T20:50:16.280Z,4.40
2019-03-17T20:52:43.811Z,4.50
2019-03-17T20:55:13.096Z,4.70
2019-03-17T20:57:41.622Z,4.70
2019-03-17T21:00:12.734Z,4.60
2019-03-17T21:02:40.263Z,4.60
2019-03-17T21:05:07.796Z,4.50
2019-03-17T21:07:35.355Z,4.80
2019-03-17T21:10:02.916Z,5.00
2019-03-17T21:12:30.480Z,5.00
2019-03-17T21:14:58.008Z,5.10
2019-03-17T21:17:26.567Z,5.10
2019-03-17T21:19:54.143Z,5.00
2019-03-17T21:22:21.721Z,5.10
2019-03-17T21:24:49.257Z,5.20
2019-03-17T21:27:16.821Z,5.20
2019-03-17T21:29:44.587Z,5.20
2019-03-17T21:32:12.115Z,5.00
2019-03-17T21:34:39.680Z,4.90
2019-03-17T21:37:07.211Z,4.80
2019-03-17T21:39:35.541Z,4.60
2019-03-17T21:42:03.071Z,4.60
2019-03-17T21:44:30.623Z,4.50
2019-03-17T21:46:58.153Z,4.40
2019-03-17T21:49:25.712Z,4.50
2019-03-17T21:51:54.032Z,4.30
2019-03-17T21:54:21.590Z,4.30
2019-03-17T21:56:49.128Z,4.30
2019-03-17T21:59:16.683Z,4.30
2019-03-17T22:01:44.568Z,4.30
2019-03-17T22:04:12.103Z,4.50
2019-03-17T22:06:39.656Z,4.60
2019-03-17T22:09:07.186Z,4.30
2019-03-17T22:11:34.751Z,4.20
2019-03-17T22:14:11.563Z,4.40
2019-03-17T22:16:29.899Z,4.50
2019-03-17T22:18:57.433Z,4.60
2019-03-17T22:21:24.996Z,4.70
2019-03-17T22:23:52.524Z,4.70
2019-03-17T22:26:20.079Z,4.70
2019-03-17T22:28:47.608Z,4.60
2019-03-17T22:31:15.167Z,4.60
2019-03-17T22:33:42.696Z,4.50
2019-03-17T22:36:10.259Z,4.50
2019-03-17T22:38:37.783Z,4.50
2019-03-17T22:41:05.320Z,4.50
2019-03-17T22:43:32.874Z,4.50
2019-03-17T22:46:00.407Z,4.50
2019-03-17T22:48:27.964Z,4.50
2019-03-17T22:50:55.491Z,4.40
2019-03-17T22:53:23.042Z,4.40
2019-03-17T22:55:50.576Z,4.40
2019-03-17T22:58:18.140Z,4.40
2019-03-17T23:00:46.444Z,4.40
2019-03-17T23:03:13.973Z,4.40
2019-03-17T23:05:42.306Z,4.30
2019-03-17T23:08:09.843Z,4.30
2019-03-17T23:10:37.403Z,4.30
2019-03-17T23:13:04.962Z,4.20
2019-03-17T23:15:35.438Z,4.10
2019-03-17T23:18:00.099Z,3.90
2019-03-17T23:20:27.659Z,3.90
2019-03-17T23:22:55.188Z,3.70
2019-03-17T23:25:22.751Z,3.50
2019-03-17T23:27:50.270Z,3.40
2019-03-17T23:30:19.651Z,3.50
2019-03-17T23:32:49.287Z,3.50
2019-03-17T23:35:14.783Z,3.50
2019-03-17T23:37:42.336Z,3.50
2019-03-17T23:40:10.637Z,3.50
2019-03-17T23:42:38.194Z,3.40
2019-03-17T23:45:06.735Z,3.40
2019-03-17T23:47:34.299Z,3.40
2019-03-17T23:50:02.619Z,3.30
2019-03-17T23:52:30.147Z,3.30
2019-03-17T23:54:57.705Z,3.20
2019-03-17T23:57:25.379Z,3.20
2019-03-17T23:59:52.916Z,3.20
